createdAt,value
2022-08-16T17:21:49.883Z,21.5
2022-08-16T17:26:48.770Z,20.7
2022-08-16T17:31:44.334Z,20.3
2022-08-16T17:36:50.513Z,19.8
2022-08-16T17:41:39.903Z,19.5
2022-08-16T17:46:41.057Z,19.3
2022-08-16T17:51:35.852Z,19.1
2022-08-16T17:56:33.963Z,18.9
2022-08-16T18:01:32.691Z,18.7
2022-08-16T18:06:31.217Z,18.5
2022-08-16T18:11:29.534Z,18
2022-08-16T18:16:27.686Z,18.4
2022-08-16T18:21:25.531Z,18
2022-08-16T18:26:23.501Z,17.9
2022-08-16T18:31:21.715Z,17.5
2022-08-16T18:36:21.490Z,16.9
2022-08-16T18:41:17.856Z,17.4
2022-08-16T18:46:16.506Z,17
2022-08-16T18:51:19.202Z,17.6
2022-08-16T18:56:13.304Z,17.7
2022-08-16T19:01:12.454Z,18
2022-08-16T19:06:11.360Z,18.1
2022-08-16T19:11:08.743Z,18.3
2022-08-16T19:16:07.120Z,18.5
2022-08-16T19:21:05.212Z,18.6
2022-08-16T19:26:03.613Z,18.7
2022-08-16T19:31:01.692Z,18.8
2022-08-16T19:35:59.879Z,18.9
2022-08-16T19:40:58.166Z,19
2022-08-16T19:45:55.998Z,19
2022-08-16T19:50:54.018Z,18.9
2022-08-16T19:55:52.063Z,18.9
2022-08-16T20:00:50.148Z,18.8
2022-08-16T20:05:48.155Z,18.7
2022-08-16T20:10:46.480Z,18.5
2022-08-16T20:15:44.444Z,18.5
2022-08-16T20:20:42.616Z,18.4
2022-08-16T20:25:42.004Z,18.4
2022-08-16T20:30:39.749Z,18.4
2022-08-16T20:35:37.939Z,18.4
2022-08-16T20:40:35.974Z,18.5
2022-08-16T20:45:34.026Z,18.5
2022-08-16T20:50:32.147Z,18.4
2022-08-16T20:55:30.324Z,18.3
2022-08-16T21:00:28.349Z,18.2
2022-08-16T21:05:27.750Z,18
2022-08-16T21:10:24.881Z,17.9
2022-08-16T21:15:23.300Z,17.8
2022-08-16T21:20:21.679Z,17.7
2022-08-16T21:25:23.297Z,17.6
2022-08-16T21:30:18.706Z,17.5
2022-08-16T21:35:16.916Z,17.4
2022-08-16T21:40:15.497Z,17.4
2022-08-16T21:45:13.577Z,17.3
2022-08-16T21:50:12.081Z,17.2
2022-08-16T21:55:10.591Z,17
2022-08-16T22:00:08.921Z,16.6
2022-08-16T22:05:07.262Z,16.5
2022-08-16T22:10:05.981Z,16.3
2022-08-16T22:15:03.882Z,16.1
2022-08-16T22:20:01.735Z,15.9
2022-08-16T22:24:59.983Z,15.8
2022-08-16T22:29:58.142Z,15.7
2022-08-16T22:34:56.263Z,15.5
2022-08-16T22:39:54.382Z,15.4
2022-08-16T22:44:52.731Z,15.3
2022-08-16T22:49:50.720Z,15.3
2022-08-16T22:54:49.226Z,15.2
2022-08-16T22:59:47.016Z,15
2022-08-16T23:04:45.465Z,15.1
2022-08-16T23:09:43.896Z,14.9
2022-08-16T23:14:41.888Z,14.9
2022-08-16T23:19:39.929Z,14.9
2022-08-16T23:24:38.276Z,14.8
2022-08-16T23:29:36.450Z,14.7
2022-08-16T23:34:34.825Z,14.6
2022-08-16T23:39:32.825Z,14.6
2022-08-16T23:44:42.033Z,14.5
2022-08-16T23:49:45.543Z,14.5
2022-08-16T23:54:27.399Z,14.4
2022-08-16T23:59:25.566Z,14.4
